Time;durP1;ratioP1;P1;durP2;ratioP2;P2;SDS_P1;SDS_P2;PMS_P1;PMS_P2;Temp;Humidity;BMP_temperature;BMP_pressure;BME280_temperature;BME280_humidity;BME280_pressure;Samples;Min_cycle;Max_cycle;Signal;HPM_P1;HPM_P2
2022/12/08 00:00:36;;;;;;;9.33;5.80;;;0.60;99.90;;;;;;5014113;28;20882;-77
2022/12/08 00:03:01;;;;;;;7.30;5.90;;;0.70;99.90;;;;;;5010533;28;20244;-77
2022/12/08 00:10:55;;;;;;;8.77;5.73;;;0.70;99.90;;;;;;5013655;28;20420;-78
2022/12/08 00:13:20;;;;;;;7.10;5.03;;;0.70;99.90;;;;;;5013480;28;20394;-78
2022/12/08 00:15:46;;;;;;;9.73;5.67;;;0.80;99.90;;;;;;5013367;28;20246;-78
2022/12/08 00:18:11;;;;;;;6.83;5.17;;;0.80;99.90;;;;;;5013715;28;20231;-79
2022/12/08 00:20:38;;;;;;;7.23;4.67;;;0.80;99.90;;;;;;5014529;28;20186;-76
2022/12/08 00:23:03;;;;;;;10.03;5.03;;;0.80;99.90;;;;;;5013158;28;20188;-77
2022/12/08 00:25:30;;;;;;;15.60;6.10;;;0.90;99.90;;;;;;5013266;28;20470;-78
2022/12/08 00:27:56;;;;;;;9.67;5.50;;;0.90;99.90;;;;;;5015620;28;20169;-74
2022/12/08 00:30:21;;;;;;;9.13;6.77;;;0.90;99.90;;;;;;5013830;28;20466;-77
2022/12/08 00:32:47;;;;;;;8.93;5.40;;;0.90;99.90;;;;;;5015581;28;20187;-76
2022/12/08 00:35:12;;;;;;;11.57;6.23;;;0.80;99.90;;;;;;5021915;28;20595;-77
2022/12/08 00:37:38;;;;;;;10.07;5.80;;;0.80;99.90;;;;;;5021539;28;20203;-76
2022/12/08 00:40:04;;;;;;;9.70;6.77;;;0.80;99.90;;;;;;5021770;28;20177;-77
2022/12/08 00:42:29;;;;;;;9.03;5.67;;;0.70;99.90;;;;;;5020082;28;20199;-77
2022/12/08 00:44:55;;;;;;;7.70;5.53;;;0.70;99.90;;;;;;5033750;28;20432;-77
2022/12/08 00:47:20;;;;;;;11.23;6.10;;;0.60;99.90;;;;;;5013578;28;20179;-77
2022/12/08 00:49:46;;;;;;;12.77;6.77;;;0.50;99.90;;;;;;5012934;28;20209;-77
2022/12/08 00:52:12;;;;;;;10.97;5.77;;;0.50;99.90;;;;;;5012650;28;20303;-76
2022/12/08 00:54:37;;;;;;;8.57;5.73;;;0.40;99.90;;;;;;5012873;28;20200;-77
2022/12/08 00:57:03;;;;;;;10.10;6.97;;;0.30;99.90;;;;;;5013135;28;20172;-77
2022/12/08 00:59:28;;;;;;;9.03;6.13;;;0.20;99.90;;;;;;5013364;28;20694;-77
2022/12/08 01:01:54;;;;;;;8.70;5.67;;;0.20;99.90;;;;;;5013423;28;20186;-78
2022/12/08 01:04:20;;;;;;;10.27;6.43;;;0.20;99.90;;;;;;5012665;28;20607;-75
2022/12/08 01:06:46;;;;;;;9.70;5.33;;;0.10;99.90;;;;;;5012858;28;20214;-77
2022/12/08 01:09:13;;;;;;;8.60;6.20;;;0.00;99.90;;;;;;5012889;28;20415;-77
2022/12/08 01:11:39;;;;;;;9.20;5.67;;;-0.10;99.90;;;;;;5012945;28;20383;-77
2022/12/08 01:14:05;;;;;;;8.50;6.73;;;-0.10;99.90;;;;;;5012667;28;20420;-76
2022/12/08 01:16:33;;;;;;;10.17;5.97;;;-0.20;99.90;;;;;;5012593;28;20237;-77
2022/12/08 01:18:59;;;;;;;8.77;5.53;;;-0.30;99.90;;;;;;5012739;28;20213;-77
2022/12/08 01:21:25;;;;;;;7.60;5.70;;;-0.30;99.90;;;;;;5012027;28;20823;-77
2022/12/08 01:23:51;;;;;;;9.27;6.07;;;-0.30;99.90;;;;;;5012626;28;20779;-77
2022/12/08 01:26:18;;;;;;;8.83;5.90;;;-0.30;99.90;;;;;;4994218;28;20482;-77
2022/12/08 01:28:45;;;;;;;11.40;6.53;;;-0.30;99.90;;;;;;5012306;28;20250;-77
2022/12/08 01:31:16;;;;;;;11.77;6.13;;;-0.40;99.90;;;;;;5012131;28;20419;-77
2022/12/08 01:33:43;;;;;;;9.77;6.67;;;-0.40;99.90;;;;;;5012060;28;20757;-77
2022/12/08 01:36:21;;;;;;;10.57;5.93;;;-0.40;99.90;;;;;;5011681;28;20405;-77
2022/12/08 01:38:46;;;;;;;7.93;5.00;;;-0.40;99.90;;;;;;4994336;28;20392;-77
2022/12/08 01:41:20;;;;;;;12.87;6.67;;;-0.40;99.90;;;;;;5011848;28;20380;-77
2022/12/08 01:43:58;;;;;;;10.30;6.27;;;-0.50;99.90;;;;;;5011876;28;20651;-78
2022/12/08 01:46:25;;;;;;;9.67;5.83;;;-0.50;99.90;;;;;;5011590;28;20443;-77
2022/12/08 01:48:59;;;;;;;7.40;5.23;;;-0.60;99.90;;;;;;5011874;28;20821;-77
2022/12/08 01:51:25;;;;;;;9.47;6.47;;;-0.60;99.90;;;;;;5011857;28;20398;-77
2022/12/08 01:53:51;;;;;;;11.30;7.10;;;-0.70;99.90;;;;;;5011741;28;20381;-77
2022/12/08 01:56:30;;;;;;;8.87;6.30;;;-0.70;99.90;;;;;;5011421;28;20785;-76
2022/12/08 01:58:56;;;;;;;8.33;5.37;;;-0.80;99.90;;;;;;5011680;28;20197;-76
2022/12/08 03:32:08;;;;;;;11.07;5.50;;;-1.40;99.90;;;;;;5549564;22;20491;-75
2022/12/08 03:34:34;;;;;;;9.40;5.63;;;-1.40;99.90;;;;;;5012340;28;20387;-76
2022/12/08 03:37:01;;;;;;;13.50;5.13;;;-1.40;99.90;;;;;;5014645;28;20405;-76
2022/12/08 03:39:27;;;;;;;6.43;4.73;;;-1.50;99.90;;;;;;5014321;28;20388;-76
2022/12/08 03:41:53;;;;;;;12.20;6.03;;;-1.50;99.90;;;;;;5008881;28;20826;-76
2022/12/08 03:44:18;;;;;;;8.93;5.70;;;-1.50;99.90;;;;;;4994300;28;20392;-75
2022/12/08 03:46:44;;;;;;;7.40;5.07;;;-1.50;99.90;;;;;;5003776;28;20217;-76
2022/12/08 03:49:10;;;;;;;7.67;5.57;;;-1.50;99.90;;;;;;5013663;28;20608;-77
2022/12/08 03:51:36;;;;;;;6.73;5.47;;;-1.50;99.90;;;;;;5014222;28;20427;-76
2022/12/08 03:54:02;;;;;;;8.40;5.30;;;-1.40;99.90;;;;;;5013710;28;20249;-76
2022/12/08 03:56:33;;;;;;;6.57;5.00;;;-1.50;99.90;;;;;;5014223;28;20456;-76
2022/12/08 03:58:59;;;;;;;7.93;5.33;;;-1.50;99.90;;;;;;5013915;28;20439;-75
2022/12/08 04:01:26;;;;;;;8.73;5.70;;;-1.60;99.90;;;;;;4996033;28;20445;-76
2022/12/08 04:03:52;;;;;;;7.80;5.30;;;-1.60;99.90;;;;;;5013762;28;20550;-76
2022/12/08 04:06:18;;;;;;;8.07;4.70;;;-1.60;99.90;;;;;;5013432;28;20471;-76
2022/12/08 04:08:44;;;;;;;6.13;4.83;;;-1.70;99.90;;;;;;4996242;28;20483;-76
2022/12/08 04:11:10;;;;;;;10.80;6.67;;;-1.70;99.90;;;;;;5013434;28;20889;-76
2022/12/08 04:13:37;;;;;;;11.93;6.40;;;-1.70;99.90;;;;;;5013807;28;20547;-76
2022/12/08 04:16:03;;;;;;;9.23;5.27;;;-1.70;99.90;;;;;;5013112;28;20452;-76
2022/12/08 04:18:29;;;;;;;10.00;5.43;;;-1.70;99.90;;;;;;4995875;28;20404;-76
2022/12/08 04:20:55;;;;;;;12.30;6.37;;;-1.70;99.90;;;;;;5013371;28;20773;-76
2022/12/08 04:23:21;;;;;;;9.53;5.17;;;-1.80;99.90;;;;;;5013405;28;20178;-76
2022/12/08 04:25:46;;;;;;;6.10;5.37;;;-1.80;99.90;;;;;;5012277;28;20210;-76
2022/12/08 04:28:12;;;;;;;7.83;4.73;;;-1.80;99.90;;;;;;5013223;28;20178;-76
2022/12/08 04:30:37;;;;;;;6.70;5.27;;;-1.80;99.90;;;;;;5013412;28;20263;-76
2022/12/08 04:33:03;;;;;;;6.50;4.90;;;-1.80;99.90;;;;;;4995549;28;20196;-75
2022/12/08 04:35:29;;;;;;;8.77;6.00;;;-1.80;99.90;;;;;;5013162;28;20174;-76
2022/12/08 04:37:55;;;;;;;11.70;6.00;;;-1.80;99.90;;;;;;5013365;28;20436;-76
2022/12/08 04:40:20;;;;;;;8.20;5.03;;;-1.80;99.90;;;;;;5013151;28;20609;-76
2022/12/08 04:42:46;;;;;;;8.90;5.80;;;-1.80;99.90;;;;;;5013066;28;20285;-76
2022/12/08 04:45:11;;;;;;;6.50;4.90;;;-1.80;99.90;;;;;;5012733;28;20651;-75
2022/12/08 04:47:37;;;;;;;6.70;4.63;;;-1.90;99.90;;;;;;5013079;28;20397;-76
2022/12/08 04:50:04;;;;;;;9.30;5.30;;;-1.80;99.90;;;;;;5012644;28;20233;-74
2022/12/08 04:52:29;;;;;;;8.83;6.00;;;-1.90;99.90;;;;;;5012926;28;20187;-76
2022/12/08 04:54:55;;;;;;;8.00;4.87;;;-1.90;99.90;;;;;;5012651;28;20411;-76
2022/12/08 04:57:20;;;;;;;7.30;4.93;;;-1.90;99.90;;;;;;5012841;28;20189;-76
2022/12/08 04:59:46;;;;;;;10.73;5.13;;;-1.90;99.90;;;;;;5013220;28;20185;-75
2022/12/08 05:02:12;;;;;;;11.23;7.17;;;-1.90;99.90;;;;;;5012689;28;20284;-76
2022/12/08 05:04:37;;;;;;;13.43;6.50;;;-2.00;99.90;;;;;;5012333;28;20178;-76
2022/12/08 05:07:03;;;;;;;12.17;6.33;;;-2.00;99.90;;;;;;5012603;28;20296;-75
2022/12/08 05:09:28;;;;;;;10.63;6.20;;;-2.00;99.90;;;;;;5012802;28;20308;-76
2022/12/08 05:11:54;;;;;;;8.90;6.50;;;-2.00;99.90;;;;;;5012594;28;20230;-76
2022/12/08 05:14:20;;;;;;;9.63;5.53;;;-2.00;99.90;;;;;;5012326;28;20170;-76
2022/12/08 05:16:46;;;;;;;9.40;4.70;;;-2.00;99.90;;;;;;5012682;28;20591;-76
2022/12/08 05:19:12;;;;;;;5.30;4.80;;;-2.00;99.90;;;;;;5012418;28;20917;-76
2022/12/08 05:21:38;;;;;;;10.23;5.07;;;-2.00;99.90;;;;;;5012291;28;20462;-75
2022/12/08 05:24:04;;;;;;;6.80;4.40;;;-2.00;99.90;;;;;;5012332;28;20396;-76
2022/12/08 05:26:30;;;;;;;8.17;4.17;;;-2.10;99.90;;;;;;5012072;28;20285;-76
2022/12/08 05:28:55;;;;;;;6.57;4.47;;;-2.10;99.90;;;;;;5012185;28;20443;-76
2022/12/08 05:31:21;;;;;;;6.80;4.47;;;-2.10;99.90;;;;;;5011957;28;20238;-76
2022/12/08 05:33:48;;;;;;;7.17;5.30;;;-2.10;99.90;;;;;;5012363;28;20753;-76
2022/12/08 05:36:15;;;;;;;7.10;4.57;;;-2.10;99.90;;;;;;5011977;28;20179;-76
2022/12/08 05:38:41;;;;;;;9.63;4.30;;;-2.10;99.90;;;;;;5012259;28;20444;-76
2022/12/08 05:41:08;;;;;;;9.40;6.27;;;-2.10;99.90;;;;;;5012054;28;20476;-76
2022/12/08 05:43:34;;;;;;;8.43;4.67;;;-2.10;99.90;;;;;;5012032;28;20174;-76
2022/12/08 05:45:59;;;;;;;6.47;4.47;;;-2.20;99.90;;;;;;5011775;28;20476;-76
2022/12/08 05:48:25;;;;;;;7.80;4.67;;;-2.20;99.90;;;;;;4994240;28;20177;-77
2022/12/08 05:50:51;;;;;;;7.50;4.70;;;-2.20;99.90;;;;;;5011960;28;20232;-77
2022/12/08 05:53:18;;;;;;;6.93;4.43;;;-2.20;99.90;;;;;;5011760;28;20229;-75
2022/12/08 05:55:44;;;;;;;8.23;5.87;;;-2.20;99.90;;;;;;5011826;28;20420;-77
2022/12/08 05:58:13;;;;;;;7.63;5.70;;;-2.10;99.90;;;;;;5011839;28;20384;-76
2022/12/08 06:00:39;;;;;;;5.90;4.60;;;-2.10;99.90;;;;;;5011846;28;20422;-76
2022/12/08 06:03:05;;;;;;;9.70;4.67;;;-2.10;99.90;;;;;;5011766;28;20416;-76
2022/12/08 06:05:34;;;;;;;11.80;5.07;;;-2.10;99.90;;;;;;5011512;28;20944;-77
2022/12/08 06:08:00;;;;;;;6.43;5.30;;;-2.10;99.90;;;;;;5011822;28;20178;-77
2022/12/08 06:10:25;;;;;;;8.70;5.10;;;-2.20;99.90;;;;;;5011512;28;20388;-78
2022/12/08 06:12:51;;;;;;;4.90;4.40;;;-2.20;99.90;;;;;;5010047;28;20273;-76
2022/12/08 06:15:17;;;;;;;10.03;4.40;;;-2.20;99.90;;;;;;5006316;28;20197;-76
2022/12/08 06:17:42;;;;;;;7.13;5.20;;;-2.20;99.90;;;;;;5008303;28;20687;-76
2022/12/08 06:20:08;;;;;;;9.10;5.20;;;-2.20;99.90;;;;;;5011381;28;20884;-77
2022/12/08 06:22:34;;;;;;;8.23;5.17;;;-2.20;99.90;;;;;;5004787;28;20692;-77
2022/12/08 06:25:00;;;;;;;8.33;5.20;;;-2.20;99.90;;;;;;5010540;28;20182;-76
2022/12/08 06:27:25;;;;;;;6.77;4.73;;;-2.30;99.90;;;;;;5011402;28;20441;-77
2022/12/08 06:29:51;;;;;;;6.20;4.70;;;-2.30;99.90;;;;;;5010963;28;20208;-77
2022/12/08 06:32:17;;;;;;;9.87;5.03;;;-2.30;99.90;;;;;;5001938;28;20257;-76
2022/12/08 06:34:42;;;;;;;5.30;4.63;;;-2.20;99.90;;;;;;5004820;28;20228;-75
2022/12/08 06:37:08;;;;;;;10.53;5.47;;;-2.20;99.90;;;;;;4997610;28;20186;-77
2022/12/08 06:39:34;;;;;;;7.93;5.10;;;-2.20;99.90;;;;;;4990534;28;20194;-79
2022/12/08 06:44:44;;;;;;;7.83;5.60;;;-2.20;99.90;;;;;;4990561;28;20193;-78
2022/12/08 06:47:09;;;;;;;8.40;5.33;;;-2.20;99.90;;;;;;4989941;28;20427;-77
2022/12/08 06:49:35;;;;;;;13.17;5.10;;;-2.30;99.90;;;;;;4994049;28;20178;-76
2022/12/08 06:52:00;;;;;;;12.90;5.17;;;-2.30;99.90;;;;;;4995373;28;20245;-76
2022/12/08 06:54:26;;;;;;;14.07;5.60;;;-2.30;99.90;;;;;;4994836;28;20190;-76
2022/12/08 06:56:51;;;;;;;8.43;5.07;;;-2.20;99.90;;;;;;4995331;28;20185;-75
2022/12/08 06:59:18;;;;;;;9.67;5.97;;;-2.10;99.90;;;;;;4994778;28;20265;-77
2022/12/08 07:01:44;;;;;;;12.03;6.23;;;-2.10;99.90;;;;;;4995085;28;20205;-75
2022/12/08 07:04:10;;;;;;;9.00;4.90;;;-2.10;99.90;;;;;;4994575;28;20486;-72
2022/12/08 07:06:35;;;;;;;9.10;6.07;;;-2.10;99.90;;;;;;4995030;28;20549;-74
2022/12/08 07:09:01;;;;;;;14.73;5.23;;;-2.10;99.90;;;;;;4994960;28;20904;-74
2022/12/08 07:11:26;;;;;;;10.77;5.73;;;-2.20;99.90;;;;;;4994786;28;20207;-74
2022/12/08 07:13:55;;;;;;;14.03;5.20;;;-2.10;99.90;;;;;;4977135;28;20579;-75
2022/12/08 07:16:21;;;;;;;9.60;5.07;;;-2.10;99.90;;;;;;4994650;28;20175;-77
2022/12/08 07:18:47;;;;;;;12.30;5.13;;;-2.20;99.90;;;;;;4994750;28;20422;-77
2022/12/08 07:21:16;;;;;;;9.87;5.40;;;-2.10;99.90;;;;;;4994589;28;20191;-78
2022/12/08 07:23:44;;;;;;;9.10;5.30;;;-2.10;99.90;;;;;;4994703;28;20229;-75
2022/12/08 07:26:11;;;;;;;8.83;5.50;;;-2.10;99.90;;;;;;4994191;28;20432;-75
2022/12/08 07:28:38;;;;;;;10.23;5.90;;;-2.10;99.90;;;;;;4994549;28;20389;-75
2022/12/08 07:31:05;;;;;;;9.17;4.80;;;-2.10;99.90;;;;;;4994219;28;20435;-74
2022/12/08 07:33:32;;;;;;;8.67;5.50;;;-2.10;99.90;;;;;;4994769;28;20444;-76
2022/12/08 07:35:59;;;;;;;7.90;5.30;;;-2.10;99.90;;;;;;4994154;28;20449;-78
2022/12/08 07:38:26;;;;;;;11.93;5.30;;;-2.00;99.90;;;;;;4994453;28;20386;-77
2022/12/08 07:40:52;;;;;;;7.47;5.93;;;-2.00;99.90;;;;;;4994395;28;20421;-78
2022/12/08 07:43:18;;;;;;;8.00;4.80;;;-2.00;99.90;;;;;;4994143;28;20396;-77
2022/12/08 07:45:44;;;;;;;8.03;5.00;;;-1.90;99.90;;;;;;4994057;28;20631;-76
2022/12/08 07:48:10;;;;;;;10.13;5.70;;;-1.90;99.90;;;;;;4994165;28;20175;-77
2022/12/08 07:50:35;;;;;;;9.13;5.77;;;-1.90;99.90;;;;;;4993946;28;20422;-74
2022/12/08 07:53:01;;;;;;;10.37;5.93;;;-1.80;99.90;;;;;;4993975;28;20190;-76
2022/12/08 07:55:26;;;;;;;8.20;5.07;;;-1.80;99.90;;;;;;4993855;28;20171;-77
2022/12/08 07:57:52;;;;;;;9.70;5.40;;;-1.80;99.90;;;;;;4992932;28;20709;-76
2022/12/08 08:00:18;;;;;;;10.10;5.47;;;-1.70;99.90;;;;;;4992724;28;20176;-76
2022/12/08 08:02:44;;;;;;;10.20;6.50;;;-1.60;99.90;;;;;;4994950;28;20211;-77
2022/12/08 08:05:13;;;;;;;10.30;5.57;;;-1.60;99.90;;;;;;4994254;28;20889;-76
2022/12/08 08:07:44;;;;;;;5.00;4.20;;;-1.50;99.90;;;;;;4994508;28;20434;-76
2022/12/08 08:10:11;;;;;;;7.57;5.40;;;-1.40;99.90;;;;;;4994255;28;20377;-78
2022/12/08 08:12:37;;;;;;;7.63;5.83;;;-1.40;99.90;;;;;;4977264;28;20922;-77
2022/12/08 08:15:06;;;;;;;7.53;5.20;;;-1.30;99.90;;;;;;4993868;28;20382;-76
2022/12/08 08:17:32;;;;;;;11.10;6.17;;;-1.20;99.90;;;;;;4994633;28;20191;-77
2022/12/08 08:19:58;;;;;;;14.40;7.57;;;-1.20;99.90;;;;;;4994051;28;20393;-76
2022/12/08 08:22:24;;;;;;;10.00;5.90;;;-1.10;99.90;;;;;;4994058;28;20447;-78
2022/12/08 08:24:49;;;;;;;9.90;6.97;;;-1.00;99.90;;;;;;4975990;28;20278;-77
2022/12/08 08:27:15;;;;;;;13.60;5.60;;;-0.90;99.90;;;;;;4994118;28;20521;-76
2022/12/08 08:29:41;;;;;;;11.80;6.77;;;-0.90;99.90;;;;;;4993944;28;20207;-77
2022/12/08 08:32:06;;;;;;;9.70;6.33;;;-0.70;99.90;;;;;;4994097;28;20222;-76
2022/12/08 08:34:32;;;;;;;9.17;6.60;;;-0.60;99.90;;;;;;4993342;28;20180;-77
2022/12/08 08:36:57;;;;;;;21.27;7.30;;;-0.50;99.90;;;;;;4993537;28;20177;-77
2022/12/08 08:39:23;;;;;;;13.03;8.17;;;-0.30;99.90;;;;;;4993489;28;20222;-76
2022/12/08 08:41:48;;;;;;;16.50;6.67;;;-0.20;99.90;;;;;;4993342;28;20624;-77
2022/12/08 08:44:14;;;;;;;11.03;5.67;;;-0.10;99.90;;;;;;4992885;28;20657;-77
2022/12/08 08:46:40;;;;;;;10.27;6.47;;;0.00;99.90;;;;;;4993103;28;20681;-77
2022/12/08 08:49:06;;;;;;;10.00;6.70;;;0.10;99.90;;;;;;4993047;28;20180;-77
2022/12/08 08:51:32;;;;;;;10.37;6.07;;;0.20;99.90;;;;;;4992991;28;20421;-76
2022/12/08 08:53:57;;;;;;;13.40;6.27;;;0.30;99.90;;;;;;4993231;28;20255;-76
2022/12/08 08:56:24;;;;;;;10.37;6.33;;;0.40;99.90;;;;;;4992846;28;20540;-76
2022/12/08 08:58:51;;;;;;;12.23;7.07;;;0.60;99.90;;;;;;4992943;28;20674;-76
2022/12/08 09:01:19;;;;;;;8.50;6.07;;;0.80;99.90;;;;;;4992825;28;20427;-77
2022/12/08 09:03:45;;;;;;;11.10;6.60;;;1.00;99.90;;;;;;4992749;28;20394;-76
2022/12/08 09:06:12;;;;;;;10.90;6.50;;;1.30;99.90;;;;;;4992704;28;20973;-77
2022/12/08 09:08:37;;;;;;;9.73;7.03;;;2.20;99.90;;;;;;4992858;28;20881;-76
2022/12/08 09:11:03;;;;;;;6.53;5.20;;;3.20;99.90;;;;;;4992241;28;20405;-76
2022/12/08 09:13:28;;;;;;;7.73;6.67;;;4.30;99.90;;;;;;4992767;28;20176;-76
2022/12/08 09:15:54;;;;;;;10.20;5.93;;;5.30;99.90;;;;;;4992490;28;20244;-76
2022/12/08 09:18:19;;;;;;;9.90;5.77;;;6.30;99.90;;;;;;4992502;28;20188;-75
2022/12/08 09:20:45;;;;;;;11.17;6.60;;;6.80;99.90;;;;;;4975065;28;20190;-75
2022/12/08 09:23:10;;;;;;;7.60;6.00;;;7.50;99.90;;;;;;4992564;28;20584;-75
2022/12/08 09:25:36;;;;;;;8.47;6.77;;;7.50;99.90;;;;;;4992105;28;20203;-75
2022/12/08 09:28:01;;;;;;;8.80;5.50;;;7.80;99.90;;;;;;4992495;28;20173;-75
2022/12/08 09:30:27;;;;;;;12.30;5.77;;;7.80;99.90;;;;;;4992439;28;20180;-75
2022/12/08 09:32:53;;;;;;;9.10;6.57;;;7.70;99.90;;;;;;4992379;28;20577;-77
2022/12/08 09:35:18;;;;;;;7.80;5.30;;;7.60;99.90;;;;;;4991941;28;20192;-75
2022/12/08 09:37:44;;;;;;;9.53;5.63;;;8.10;99.90;;;;;;4997851;28;20191;-75
2022/12/08 09:40:14;;;;;;;8.20;5.20;;;8.20;99.90;;;;;;5011711;28;20237;-77
2022/12/08 09:43:11;;;;;;;9.07;5.97;;;8.00;99.90;;;;;;5011894;28;20200;-75
2022/12/08 09:45:37;;;;;;;6.10;5.50;;;8.20;99.90;;;;;;5011514;28;20466;-76
2022/12/08 09:48:16;;;;;;;12.37;6.27;;;8.10;99.90;;;;;;4994208;28;20795;-75
2022/12/08 09:50:42;;;;;;;13.93;5.23;;;8.30;99.90;;;;;;5011466;28;20421;-75
2022/12/08 09:53:26;;;;;;;8.30;6.50;;;8.10;99.90;;;;;;5011620;28;20774;-75
2022/12/08 09:55:56;;;;;;;9.60;6.80;;;7.90;99.90;;;;;;5011399;28;20180;-76
2022/12/08 09:58:34;;;;;;;11.80;6.43;;;7.70;99.90;;;;;;5011633;28;20499;-75
2022/12/08 10:00:59;;;;;;;9.00;6.10;;;8.00;99.90;;;;;;5011537;28;20438;-74
2022/12/08 10:03:28;;;;;;;7.37;5.73;;;8.00;99.90;;;;;;5011614;28;20426;-75
2022/12/08 10:06:04;;;;;;;11.43;6.50;;;7.90;99.90;;;;;;5011350;28;20699;-75
2022/12/08 10:08:39;;;;;;;9.50;5.40;;;8.00;99.90;;;;;;5011589;28;20409;-75
2022/12/08 10:11:12;;;;;;;7.90;5.83;;;8.10;99.90;;;;;;5011443;28;20434;-75
2022/12/08 10:14:03;;;;;;;9.63;6.33;;;8.10;99.90;;;;;;5011397;28;20501;-76
2022/12/08 10:16:51;;;;;;;8.20;5.70;;;8.30;99.90;;;;;;5011486;28;20962;-75
2022/12/08 10:19:20;;;;;;;9.97;6.30;;;8.30;99.90;;;;;;5011266;28;20433;-75
2022/12/08 10:21:47;;;;;;;8.77;5.50;;;8.20;99.90;;;;;;5011547;28;20452;-75
2022/12/08 10:24:46;;;;;;;10.43;6.20;;;8.30;99.90;;;;;;5013000;28;20416;-75
2022/12/08 10:27:12;;;;;;;8.70;5.90;;;8.30;99.90;;;;;;4998054;28;20532;-76
2022/12/08 10:29:39;;;;;;;7.10;5.73;;;8.00;99.90;;;;;;5016924;28;20423;-75
2022/12/08 10:32:22;;;;;;;10.00;5.30;;;7.80;99.90;;;;;;5017337;28;20256;-76
2022/12/08 10:35:02;;;;;;;7.20;5.53;;;7.70;99.90;;;;;;5016212;28;20421;-75
2022/12/08 10:37:28;;;;;;;5.03;4.50;;;7.50;99.90;;;;;;5016447;28;20454;-76
2022/12/08 10:40:05;;;;;;;6.97;5.73;;;7.40;99.90;;;;;;5016168;28;20948;-76
2022/12/08 10:42:46;;;;;;;6.00;5.00;;;7.00;99.90;;;;;;5015713;28;20201;-75
2022/12/08 10:45:36;;;;;;;10.83;5.20;;;6.80;99.90;;;;;;5015066;28;20443;-77
2022/12/08 10:48:03;;;;;;;7.13;5.33;;;6.70;99.90;;;;;;5015631;28;20417;-76
2022/12/08 10:50:41;;;;;;;5.53;4.57;;;6.30;99.90;;;;;;5015251;28;20409;-75
2022/12/08 10:53:07;;;;;;;7.07;4.23;;;6.20;99.90;;;;;;5014967;28;20406;-76
2022/12/08 10:55:46;;;;;;;5.00;4.23;;;6.00;99.90;;;;;;5014654;28;20409;-76
2022/12/08 10:58:35;;;;;;;4.77;3.83;;;5.90;99.90;;;;;;5014850;28;20162;-77
2022/12/08 11:01:20;;;;;;;6.23;4.20;;;5.70;99.90;;;;;;5014629;28;20429;-76
2022/12/08 11:04:01;;;;;;;8.30;4.67;;;5.60;99.90;;;;;;5014737;28;20480;-78
2022/12/08 11:06:38;;;;;;;8.10;4.60;;;5.30;99.90;;;;;;5014382;28;20515;-77
2022/12/08 11:09:21;;;;;;;12.57;4.80;;;5.20;99.90;;;;;;5014518;28;20938;-76
2022/12/08 11:11:50;;;;;;;4.63;4.17;;;5.20;99.90;;;;;;4996923;28;20503;-77
2022/12/08 11:14:22;;;;;;;5.60;4.37;;;5.30;99.90;;;;;;4996700;28;20431;-75
2022/12/08 11:16:50;;;;;;;5.53;4.83;;;5.20;99.90;;;;;;5014661;28;20503;-76
2022/12/08 11:19:18;;;;;;;8.60;4.63;;;5.20;99.90;;;;;;5014237;28;20944;-76
2022/12/08 11:21:44;;;;;;;6.40;4.87;;;5.20;99.90;;;;;;5014621;28;20444;-76
2022/12/08 11:24:27;;;;;;;7.23;4.87;;;5.10;99.90;;;;;;4996347;28;20451;-73
2022/12/08 11:26:56;;;;;;;7.47;5.50;;;5.10;99.90;;;;;;5014477;28;20448;-75
2022/12/08 11:29:21;;;;;;;6.67;4.60;;;5.00;99.90;;;;;;5014122;28;20832;-75
2022/12/08 11:31:54;;;;;;;7.97;5.10;;;5.10;99.90;;;;;;5014218;28;20451;-75
2022/12/08 11:34:30;;;;;;;6.33;4.73;;;5.10;99.90;;;;;;5013394;28;20194;-75
2022/12/08 11:36:57;;;;;;;5.80;4.27;;;5.10;99.90;;;;;;5014223;28;20392;-75
2022/12/08 11:39:25;;;;;;;6.13;4.50;;;5.10;99.90;;;;;;5013940;28;20417;-76
2022/12/08 11:41:53;;;;;;;7.27;4.70;;;5.20;99.90;;;;;;5014160;28;20434;-75
2022/12/08 11:44:32;;;;;;;6.63;5.33;;;5.30;99.90;;;;;;5013630;28;20414;-75
2022/12/08 11:47:05;;;;;;;6.67;5.27;;;5.30;99.90;;;;;;5013984;28;20455;-76
2022/12/08 11:49:39;;;;;;;5.03;4.13;;;5.30;99.90;;;;;;5014046;28;20441;-75
2022/12/08 11:52:21;;;;;;;5.67;3.87;;;5.40;99.90;;;;;;5013728;28;20426;-77
2022/12/08 11:54:56;;;;;;;6.30;4.30;;;5.40;99.90;;;;;;5013697;28;20405;-76
2022/12/08 11:57:25;;;;;;;4.83;4.00;;;5.40;99.90;;;;;;5014305;28;20421;-76
2022/12/08 11:59:54;;;;;;;6.00;4.30;;;5.40;99.90;;;;;;5013850;28;20423;-76
2022/12/08 12:02:22;;;;;;;4.53;4.17;;;5.30;99.90;;;;;;5013460;28;20443;-75
2022/12/08 12:05:08;;;;;;;4.47;3.77;;;5.30;99.90;;;;;;5013537;28;20411;-74
2022/12/08 12:07:56;;;;;;;5.30;3.90;;;5.30;99.90;;;;;;5013648;28;20454;-75
2022/12/08 12:10:53;;;;;;;6.17;4.10;;;5.40;99.90;;;;;;5013842;28;20419;-75
2022/12/08 12:13:31;;;;;;;6.47;3.70;;;5.40;99.90;;;;;;5013850;28;20405;-76
2022/12/08 12:16:34;;;;;;;3.90;3.60;;;5.30;99.90;;;;;;5013288;28;20413;-76
2022/12/08 12:19:04;;;;;;;5.77;4.33;;;5.20;99.90;;;;;;5013823;28;20841;-76
2022/12/08 12:21:29;;;;;;;4.50;3.90;;;5.20;99.90;;;;;;5013868;28;20807;-77
2022/12/08 12:24:05;;;;;;;5.67;4.00;;;5.20;99.90;;;;;;5013195;28;20416;-77
2022/12/08 12:26:36;;;;;;;5.67;4.13;;;5.20;99.90;;;;;;5013117;28;20206;-77
2022/12/08 12:29:06;;;;;;;6.67;4.40;;;5.20;99.90;;;;;;5013076;28;20401;-77
2022/12/08 12:31:40;;;;;;;6.17;4.90;;;5.10;99.90;;;;;;5006159;28;20451;-77
2022/12/08 12:34:28;;;;;;;5.97;5.30;;;5.10;99.90;;;;;;4993280;28;20396;-77
2022/12/08 12:37:13;;;;;;;7.53;6.33;;;5.10;99.90;;;;;;4993501;28;20423;-73
2022/12/08 12:39:54;;;;;;;8.47;6.33;;;5.20;99.90;;;;;;4993390;28;20416;-77
2022/12/08 12:42:42;;;;;;;6.17;4.40;;;5.20;99.90;;;;;;4993201;28;20419;-77
2022/12/08 12:45:24;;;;;;;7.33;3.90;;;5.20;99.90;;;;;;4975390;28;21094;-77
2022/12/08 12:48:11;;;;;;;4.57;4.17;;;5.10;99.90;;;;;;4992524;28;20407;-75
2022/12/08 12:50:42;;;;;;;7.13;3.97;;;5.10;99.90;;;;;;4992997;28;20538;-76
2022/12/08 12:53:17;;;;;;;4.33;3.90;;;5.10;99.90;;;;;;4993001;28;20403;-77
2022/12/08 12:55:53;;;;;;;4.53;4.13;;;5.10;99.90;;;;;;4992781;28;20437;-76
2022/12/08 12:58:30;;;;;;;5.90;4.17;;;5.10;99.90;;;;;;4993078;28;20403;-76
2022/12/08 13:01:14;;;;;;;5.97;4.40;;;5.20;99.90;;;;;;4993330;28;20924;-77
2022/12/08 13:03:43;;;;;;;6.73;4.20;;;5.10;99.90;;;;;;4995044;28;20784;-77
2022/12/08 13:06:13;;;;;;;6.90;4.27;;;5.10;99.90;;;;;;4993775;28;20533;-77
2022/12/08 13:08:50;;;;;;;4.60;4.20;;;5.20;99.90;;;;;;4993915;28;20446;-78
2022/12/08 13:11:16;;;;;;;6.33;4.47;;;5.20;99.90;;;;;;4992471;28;20438;-77
2022/12/08 13:14:02;;;;;;;5.10;4.67;;;5.20;99.90;;;;;;4992861;28;20473;-77
2022/12/08 13:16:34;;;;;;;6.80;4.83;;;5.20;99.90;;;;;;4992464;28;20205;-77
2022/12/08 13:19:03;;;;;;;8.40;4.60;;;5.10;99.90;;;;;;4992538;28;20807;-75
2022/12/08 13:21:37;;;;;;;5.43;4.93;;;5.20;99.90;;;;;;4992609;28;20430;-77
2022/12/08 13:24:24;;;;;;;5.47;4.97;;;5.00;99.90;;;;;;4992391;28;20425;-76
2022/12/08 13:27:05;;;;;;;6.77;5.20;;;4.90;99.90;;;;;;4992688;28;20537;-77
2022/12/08 13:29:31;;;;;;;5.43;4.93;;;4.90;99.90;;;;;;4992546;28;20458;-77
2022/12/08 13:32:21;;;;;;;5.30;4.43;;;4.90;99.90;;;;;;4992334;28;20831;-76
2022/12/08 13:34:54;;;;;;;5.10;4.07;;;4.90;99.90;;;;;;4944808;28;20506;-77
2022/12/08 13:37:46;;;;;;;6.57;4.83;;;4.90;99.90;;;;;;4994399;28;20415;-77
2022/12/08 13:40:17;;;;;;;6.27;4.30;;;4.90;99.90;;;;;;4992272;28;20420;-77
2022/12/08 13:43:03;;;;;;;7.83;4.90;;;4.80;99.90;;;;;;4998175;28;20433;-78
2022/12/08 13:45:30;;;;;;;7.63;4.67;;;4.70;99.90;;;;;;4991588;28;20838;-77
2022/12/08 13:48:09;;;;;;;8.10;5.70;;;4.70;99.90;;;;;;4993238;28;20510;-76
2022/12/08 13:50:44;;;;;;;8.50;4.87;;;4.70;99.90;;;;;;4992257;28;20414;-77
2022/12/08 13:53:22;;;;;;;5.73;4.93;;;4.70;99.90;;;;;;4991740;28;20501;-77
2022/12/08 13:55:50;;;;;;;7.13;5.13;;;4.70;99.90;;;;;;4994051;28;20444;-77
2022/12/08 13:58:18;;;;;;;6.20;5.07;;;4.60;99.90;;;;;;4991832;28;20411;-77
2022/12/08 14:01:06;;;;;;;7.37;5.60;;;4.60;99.90;;;;;;4991830;28;20411;-78
2022/12/08 14:03:52;;;;;;;6.80;4.80;;;4.60;99.90;;;;;;5002897;28;20490;-77
2022/12/08 14:06:24;;;;;;;8.20;5.27;;;4.50;99.90;;;;;;4991380;28;20564;-77
2022/12/08 14:08:54;;;;;;;6.33;4.80;;;4.60;99.90;;;;;;5003369;28;20422;-77
2022/12/08 14:11:36;;;;;;;6.77;5.40;;;4.50;99.90;;;;;;4999269;28;20786;-77
2022/12/08 14:14:17;;;;;;;9.03;4.77;;;4.50;99.90;;;;;;4992519;28;20747;-76
2022/12/08 14:16:49;;;;;;;8.03;4.40;;;4.50;99.90;;;;;;5000918;28;21001;-77
2022/12/08 14:19:20;;;;;;;6.60;4.77;;;4.50;99.90;;;;;;5003692;28;21110;-76
2022/12/08 14:21:50;;;;;;;8.20;5.70;;;4.40;99.90;;;;;;5010284;28;20420;-77
2022/12/08 14:24:15;;;;;;;6.87;4.90;;;4.40;99.90;;;;;;5010732;28;20435;-75
2022/12/08 14:26:44;;;;;;;9.13;4.60;;;4.40;99.90;;;;;;4993680;28;20460;-75
2022/12/08 14:29:16;;;;;;;5.73;4.40;;;4.40;99.90;;;;;;5003100;28;20192;-76
2022/12/08 14:31:43;;;;;;;8.70;5.93;;;4.40;99.90;;;;;;5005296;28;20839;-76
2022/12/08 14:34:10;;;;;;;7.40;4.90;;;4.40;99.90;;;;;;5002505;28;20435;-75
2022/12/08 14:36:36;;;;;;;6.03;4.33;;;4.40;99.90;;;;;;4999428;28;20463;-76
2022/12/08 14:39:02;;;;;;;4.90;4.20;;;4.30;99.90;;;;;;5003105;28;21158;-74
2022/12/08 14:41:32;;;;;;;4.40;4.00;;;4.30;99.90;;;;;;5007161;28;20212;-75